createdAt,value
2023-03-23T15:58:35.209Z,18.00
2023-03-23T16:01:08.314Z,18.90
2023-03-23T16:03:41.372Z,19.80
2023-03-23T16:06:23.388Z,19.60
2023-03-23T16:08:55.859Z,19.90
2023-03-23T16:11:27.730Z,19.80
2023-03-23T16:13:57.499Z,19.00
2023-03-23T16:16:29.692Z,20.90
2023-03-23T16:18:59.114Z,19.50
2023-03-23T16:21:35.218Z,21.60
2023-03-23T16:24:07.466Z,21.30
2023-03-23T16:26:39.802Z,21.00
2023-03-23T16:29:28.355Z,21.90
2023-03-23T16:32:04.663Z,25.00
2023-03-23T16:34:35.281Z,22.10
2023-03-23T16:37:06.174Z,23.00
2023-03-23T16:39:35.591Z,24.60
2023-03-23T16:42:04.926Z,28.10
2023-03-23T16:44:34.090Z,23.40
2023-03-23T16:47:03.607Z,20.60
2023-03-23T16:49:32.886Z,24.30
2023-03-23T16:52:02.081Z,28.60
2023-03-23T16:54:32.164Z,24.70
2023-03-23T16:57:01.436Z,23.60
2023-03-23T16:59:31.067Z,25.80
2023-03-23T17:02:02.984Z,23.70
2023-03-23T17:04:33.084Z,29.90
2023-03-23T17:07:09.419Z,29.20
2023-03-23T17:09:46.504Z,30.00
2023-03-23T17:12:17.262Z,29.60
2023-03-23T17:14:46.747Z,34.50
2023-03-23T17:17:16.418Z,30.30
2023-03-23T17:19:47.829Z,26.90
2023-03-23T17:22:16.974Z,27.50
2023-03-23T17:24:47.160Z,29.50
2023-03-23T17:27:19.512Z,23.60
2023-03-23T17:29:49.361Z,25.30
2023-03-23T17:32:20.353Z,26.60
2023-03-23T17:34:52.924Z,28.10
2023-03-23T17:37:23.188Z,28.50
2023-03-23T17:39:52.368Z,32.40
2023-03-23T17:42:21.686Z,30.70
2023-03-23T17:44:51.060Z,25.20
2023-03-23T17:47:20.367Z,25.20
2023-03-23T17:49:49.764Z,27.40
2023-03-23T17:52:19.541Z,26.30
2023-03-23T17:54:48.717Z,25.90
2023-03-23T17:57:18.500Z,26.30
2023-03-23T17:59:48.097Z,29.60
2023-03-23T18:02:19.180Z,26.00
2023-03-23T18:04:48.835Z,29.60
2023-03-23T18:07:23.942Z,29.20
2023-03-23T18:09:53.200Z,28.80
2023-03-23T18:12:22.519Z,31.40
2023-03-23T18:14:55.702Z,29.10
2023-03-23T18:17:26.044Z,30.00
2023-03-23T18:19:55.341Z,31.10
2023-03-23T18:22:24.972Z,32.60
2023-03-23T18:24:55.144Z,32.60
2023-03-23T18:27:25.750Z,31.70
2023-03-23T18:29:55.475Z,32.60
2023-03-23T18:32:26.942Z,31.20
2023-03-23T18:34:56.613Z,33.50
2023-03-23T18:37:26.150Z,29.50
2023-03-23T18:39:56.098Z,34.00
2023-03-23T18:42:26.231Z,34.60
2023-03-23T18:44:55.609Z,29.50
2023-03-23T18:47:24.776Z,33.30
2023-03-23T18:49:56.653Z,32.30
2023-03-23T18:52:28.285Z,34.20
2023-03-23T18:54:58.206Z,34.70
2023-03-23T18:57:28.043Z,34.60
2023-03-23T18:59:57.500Z,32.60
2023-03-23T19:02:27.195Z,33.90
2023-03-23T19:04:57.015Z,35.70
2023-03-23T19:07:26.241Z,31.90
2023-03-23T19:09:55.456Z,34.10
2023-03-23T19:12:25.231Z,34.30
2023-03-23T19:14:54.653Z,35.20
2023-03-23T19:17:24.643Z,34.00
2023-03-23T19:19:54.789Z,36.60
2023-03-23T19:22:25.492Z,35.80
2023-03-23T19:25:04.854Z,34.50
2023-03-23T19:27:43.560Z,35.10
2023-03-23T19:30:24.442Z,34.10
2023-03-23T19:32:53.739Z,32.60
2023-03-23T19:35:23.051Z,35.10
2023-03-23T19:37:52.531Z,32.10
2023-03-23T19:40:37.518Z,35.40
2023-03-23T19:43:10.974Z,34.40
2023-03-23T19:45:41.485Z,35.20
2023-03-23T19:48:10.893Z,33.40
2023-03-23T19:50:40.959Z,36.50
2023-03-23T19:53:10.452Z,34.00
2023-03-23T19:55:39.781Z,34.40
2023-03-23T19:58:10.405Z,31.50
2023-03-23T20:00:40.552Z,33.10
2023-03-23T20:03:09.735Z,31.70
2023-03-23T20:05:40.772Z,32.80
2023-03-23T20:08:10.756Z,33.20
2023-03-23T20:10:40.764Z,32.30
2023-03-23T20:13:12.067Z,30.80
2023-03-23T20:15:41.718Z,32.10
2023-03-23T20:18:14.320Z,31.80
2023-03-23T20:20:45.794Z,31.70
2023-03-23T20:23:15.886Z,30.30
2023-03-23T20:25:46.445Z,32.10
2023-03-23T20:28:16.775Z,31.80
2023-03-23T20:30:46.690Z,34.70
2023-03-23T20:33:36.920Z,32.90
2023-03-23T20:36:09.306Z,33.00
2023-03-23T20:38:41.372Z,31.90
2023-03-23T20:41:11.750Z,35.50
2023-03-23T20:43:42.627Z,32.70
2023-03-23T20:46:12.642Z,33.70
2023-03-23T20:48:42.224Z,32.40
2023-03-23T20:51:11.528Z,37.40
2023-03-23T20:53:41.302Z,33.10
2023-03-23T20:56:10.296Z,32.70
2023-03-23T20:58:39.616Z,29.80
2023-03-23T21:01:10.377Z,32.10
2023-03-23T21:03:43.260Z,31.20
2023-03-23T21:06:12.324Z,30.40
2023-03-23T21:08:41.707Z,32.90
2023-03-23T21:11:17.659Z,28.50
2023-03-23T21:13:47.862Z,30.50
2023-03-23T21:16:18.886Z,30.30
2023-03-23T21:18:48.732Z,30.70
2023-03-23T21:21:18.932Z,31.10
2023-03-23T21:23:51.983Z,28.80
2023-03-23T21:26:23.663Z,29.70
2023-03-23T21:28:53.684Z,29.50
2023-03-23T21:31:26.200Z,28.60
2023-03-23T21:33:55.784Z,29.30
2023-03-23T21:36:26.260Z,31.70
2023-03-23T21:38:56.498Z,31.20
2023-03-23T21:41:29.467Z,30.70
2023-03-23T21:44:11.503Z,31.10
2023-03-23T21:46:42.664Z,30.00
2023-03-23T21:49:14.190Z,27.20
2023-03-23T21:51:43.991Z,30.70
2023-03-23T21:54:13.087Z,36.70
2023-03-23T21:56:42.626Z,34.90
2023-03-23T21:59:12.060Z,33.40
2023-03-23T22:01:41.273Z,32.90
2023-03-23T22:04:11.255Z,30.80
2023-03-23T22:06:41.835Z,32.00
2023-03-23T22:09:12.024Z,30.10
2023-03-23T22:11:42.743Z,27.90
2023-03-23T22:14:12.199Z,30.80
2023-03-23T22:16:41.695Z,32.60
2023-03-23T22:19:11.227Z,32.60
2023-03-23T22:21:40.501Z,34.20
2023-03-23T22:24:10.037Z,30.20
2023-03-23T22:26:39.220Z,33.10
2023-03-23T22:29:10.664Z,31.20
2023-03-23T22:31:40.433Z,32.60
2023-03-23T22:34:10.264Z,28.60
2023-03-23T22:36:40.705Z,29.90
2023-03-23T22:39:10.102Z,33.20
2023-03-23T22:41:41.010Z,34.20
2023-03-23T22:44:13.244Z,30.30
2023-03-23T22:46:42.651Z,34.70
2023-03-23T22:49:12.103Z,32.20
2023-03-23T22:51:41.403Z,33.70
2023-03-23T22:54:11.722Z,29.70
2023-03-23T22:56:40.941Z,31.20
2023-03-23T22:59:11.716Z,31.70
2023-03-23T23:01:41.016Z,30.50
2023-03-23T23:04:10.938Z,31.00
2023-03-23T23:06:40.328Z,27.50
2023-03-23T23:09:10.356Z,29.90
2023-03-23T23:11:41.941Z,32.50
2023-03-23T23:14:11.367Z,33.80
2023-03-23T23:16:40.673Z,29.40
2023-03-23T23:19:10.062Z,28.30
2023-03-23T23:21:40.802Z,27.00
2023-03-23T23:24:10.219Z,27.40
2023-03-23T23:26:39.746Z,29.20
2023-03-23T23:29:09.736Z,26.90
2023-03-23T23:31:39.140Z,27.40
2023-03-23T23:34:12.045Z,28.20
2023-03-23T23:36:41.633Z,26.80
2023-03-23T23:39:11.659Z,28.30
2023-03-23T23:41:41.419Z,28.90
2023-03-23T23:44:10.921Z,30.30
2023-03-23T23:46:40.682Z,31.00
2023-03-23T23:49:10.299Z,32.30
2023-03-23T23:51:40.762Z,32.40
2023-03-23T23:54:10.275Z,29.10
2023-03-23T23:56:41.169Z,26.90
2023-03-23T23:59:10.532Z,30.80
